Time;durP1;ratioP1;P1;durP2;ratioP2;P2;SDS_P1;SDS_P2;PMS_P1;PMS_P2;Temp;Humidity;BMP_temperature;BMP_pressure;BME280_temperature;BME280_humidity;BME280_pressure;Samples;Min_cycle;Max_cycle;Signal;HPM_P1;HPM_P2
2022/06/12 00:01:34;;;;;;;;;;;;;;;-145.66;100.00;59599.19;10500450;28;19926;-69
2022/06/12 00:06:36;;;;;;;;;;;;;;;-145.66;100.00;59599.19;10500779;28;19927;-69
2022/06/12 00:11:40;;;;;;;;;;;;;;;-145.66;100.00;59599.19;10501997;28;19920;-69
2022/06/12 00:16:42;;;;;;;;;;;;;;;-145.66;100.00;59599.19;10502618;28;19920;-69
2022/06/12 00:21:45;;;;;;;;;;;;;;;-145.66;100.00;59599.19;10499857;28;20369;-69
2022/06/12 00:26:49;;;;;;;;;;;;;;;-145.66;100.00;59599.19;10468978;28;19928;-69
2022/06/12 00:31:52;;;;;;;;;;;;;;;-145.66;100.00;59599.19;10463991;28;19920;-69
2022/06/12 00:36:55;;;;;;;;;;;;;;;-145.66;100.00;59599.19;10471903;28;19928;-69
2022/06/12 00:41:58;;;;;;;;;;;;;;;-145.66;100.00;59599.19;10458837;28;20256;-69
2022/06/12 00:47:02;;;;;;;;;;;;;;;-145.66;100.00;59599.19;10460277;28;19932;-69
2022/06/12 00:52:11;;;;;;;;;;;;;;;-145.66;100.00;59599.19;10418875;28;19921;-69
2022/06/12 00:57:14;;;;;;;;;;;;;;;-145.66;100.00;59599.19;10455072;28;19927;-69
2022/06/12 01:02:20;;;;;;;;;;;;;;;-145.66;100.00;59599.19;10469650;28;19946;-69
2022/06/12 01:07:24;;;;;;;;;;;;;;;-145.66;100.00;59599.19;10472561;28;19920;-69
2022/06/12 01:12:27;;;;;;;;;;;;;;;-145.66;100.00;59599.19;10499430;28;19928;-69
2022/06/12 01:17:29;;;;;;;;;;;;;;;-145.66;100.00;59599.19;10498673;28;19920;-69
2022/06/12 01:22:34;;;;;;;;;;;;;;;-145.66;100.00;59599.19;10490613;28;19921;-69
2022/06/12 01:27:55;;;;;;;;;;;;;;;-145.66;100.00;59599.19;10458215;28;19920;-69
2022/06/12 01:33:17;;;;;;;;;;;;;;;-145.66;100.00;59599.19;10487767;28;19927;-69
2022/06/12 01:38:21;;;;;;;;;;;;;;;-145.66;100.00;59599.19;10473124;28;19920;-69
2022/06/12 01:43:38;;;;;;;;;;;;;;;-145.66;100.00;59599.19;10440878;28;19944;-69
2022/06/12 01:48:46;;;;;;;;;;;;;;;-145.66;100.00;59599.19;10457803;28;19920;-69
2022/06/12 01:53:55;;;;;;;;;;;;;;;-145.66;100.00;59599.19;10457034;28;20284;-69
2022/06/12 01:58:57;;;;;;;;;;;;;;;-145.66;100.00;59599.19;10462795;28;19920;-69
2022/06/12 02:04:05;;;;;;;;;;;;;;;-145.66;100.00;59599.19;10460920;28;19927;-69
2022/06/12 02:09:28;;;;;;;;;;;;;;;-145.66;100.00;59599.19;10472765;28;20371;-69
2022/06/12 02:14:31;;;;;;;;;;;;;;;-145.66;100.00;59599.19;10456666;28;19931;-68
2022/06/12 02:19:35;;;;;;;;;;;;;;;-145.66;100.00;59599.19;10457148;28;19935;-69
2022/06/12 02:24:48;;;;;;;;;;;;;;;-145.66;100.00;59599.19;10478508;28;19928;-69
2022/06/12 02:29:55;;;;;;;;;;;;;;;-145.66;100.00;59599.19;10496708;28;19925;-69
2022/06/12 02:34:59;;;;;;;;;;;;;;;-145.66;100.00;59599.19;10467224;28;19927;-69
2022/06/12 02:40:05;;;;;;;;;;;;;;;-145.66;100.00;59599.19;10438174;28;19942;-69
2022/06/12 02:45:09;;;;;;;;;;;;;;;-145.66;100.00;59599.19;10461575;28;20256;-69
2022/06/12 02:50:12;;;;;;;;;;;;;;;-145.66;100.00;59599.19;10496757;28;19928;-69
2022/06/12 02:55:35;;;;;;;;;;;;;;;-145.66;100.00;59599.19;10486983;28;20283;-69
2022/06/12 03:00:51;;;;;;;;;;;;;;;-145.66;100.00;59599.19;10459901;28;19920;-69
2022/06/12 03:05:57;;;;;;;;;;;;;;;-145.66;100.00;59599.19;10463425;28;19928;-69
2022/06/12 03:11:10;;;;;;;;;;;;;;;-145.66;100.00;59599.19;10462305;28;19927;-69
2022/06/12 03:16:15;;;;;;;;;;;;;;;-145.66;100.00;59599.19;10463783;28;19921;-69
2022/06/12 03:21:17;;;;;;;;;;;;;;;-145.66;100.00;59599.19;10463576;28;19921;-68
2022/06/12 03:26:38;;;;;;;;;;;;;;;-145.66;100.00;59599.19;10491038;28;19921;-68
2022/06/12 03:31:42;;;;;;;;;;;;;;;-145.66;100.00;59599.19;10462623;28;19931;-68
2022/06/12 03:36:48;;;;;;;;;;;;;;;-145.66;100.00;59599.19;10462460;28;20035;-69
2022/06/12 03:41:50;;;;;;;;;;;;;;;-145.66;100.00;59599.19;10462603;28;19924;-68
2022/06/12 03:47:18;;;;;;;;;;;;;;;-145.66;100.00;59599.19;10462030;28;20379;-68
2022/06/12 03:52:22;;;;;;;;;;;;;;;-145.66;100.00;59599.19;10431899;28;19924;-68
2022/06/12 04:02:52;;;;;;;;;;;;;;;-145.66;100.00;59599.19;10462216;28;19925;-69
2022/06/12 04:07:55;;;;;;;;;;;;;;;-145.66;100.00;59599.19;10473675;28;19924;-68
2022/06/12 04:12:58;;;;;;;;;;;;;;;-145.66;100.00;59599.19;10418527;28;19920;-68
2022/06/12 04:18:00;;;;;;;;;;;;;;;-145.66;100.00;59599.19;10401483;28;19925;-68
2022/06/12 04:23:04;;;;;;;;;;;;;;;-145.66;100.00;59599.19;10428474;28;19929;-68
2022/06/12 04:28:07;;;;;;;;;;;;;;;-145.66;100.00;59599.19;10500665;28;19927;-67
2022/06/12 04:33:09;;;;;;;;;;;;;;;-145.66;100.00;59599.19;10500425;28;20429;-67
2022/06/12 04:38:12;;;;;;;;;;;;;;;-145.66;100.00;59599.19;10496922;28;20367;-66
2022/06/12 04:43:14;;;;;;;;;;;;;;;-145.66;100.00;59599.19;10460913;28;19943;-67
2022/06/12 04:48:37;;;;;;;;;;;;;;;-145.66;100.00;59599.19;10459592;28;19935;-68
2022/06/12 04:53:40;;;;;;;;;;;;;;;-145.66;100.00;59599.19;10469612;28;19920;-68
2022/06/12 04:58:42;;;;;;;;;;;;;;;-145.66;100.00;59599.19;10498239;28;19920;-68
2022/06/12 05:03:44;;;;;;;;;;;;;;;-145.66;100.00;59599.19;10497885;28;19920;-68
2022/06/12 05:08:47;;;;;;;;;;;;;;;-145.66;100.00;59599.19;10491502;28;19921;-68
2022/06/12 05:13:50;;;;;;;;;;;;;;;-145.66;100.00;59599.19;10474527;28;19920;-67
2022/06/12 05:18:52;;;;;;;;;;;;;;;-145.66;100.00;59599.19;10499777;28;19920;-67
2022/06/12 05:23:54;;;;;;;;;;;;;;;-145.66;100.00;59599.19;10479445;28;19921;-67
2022/06/12 05:28:56;;;;;;;;;;;;;;;-145.66;100.00;59599.19;10485794;28;19927;-67
2022/06/12 05:33:59;;;;;;;;;;;;;;;-145.66;100.00;59599.19;10498650;28;19920;-68
2022/06/12 05:39:01;;;;;;;;;;;;;;;-145.66;100.00;59599.19;10497869;28;19925;-68
2022/06/12 05:44:04;;;;;;;;;;;;;;;-145.66;100.00;59599.19;10463100;28;19920;-68
2022/06/12 05:49:07;;;;;;;;;;;;;;;-145.66;100.00;59599.19;10456716;28;19921;-69
2022/06/12 05:54:10;;;;;;;;;;;;;;;-145.66;100.00;59599.19;10457170;28;20356;-68
2022/06/12 05:59:12;;;;;;;;;;;;;;;-145.66;100.00;59599.19;10483723;28;19990;-69
2022/06/12 06:04:16;;;;;;;;;;;;;;;-145.66;100.00;59599.19;10473344;28;19920;-68
2022/06/12 06:09:18;;;;;;;;;;;;;;;-145.66;100.00;59599.19;10481036;28;19970;-67
2022/06/12 06:14:21;;;;;;;;;;;;;;;-145.66;100.00;59599.19;10496918;28;19924;-68
2022/06/12 06:19:23;;;;;;;;;;;;;;;-145.66;100.00;59599.19;10496822;28;19921;-68
2022/06/12 06:24:25;;;;;;;;;;;;;;;-145.66;100.00;59599.19;10476386;28;19921;-68
2022/06/12 06:29:27;;;;;;;;;;;;;;;-145.66;100.00;59599.19;10456268;28;19920;-67
2022/06/12 06:34:30;;;;;;;;;;;;;;;-145.66;100.00;59599.19;10456088;28;19920;-66
2022/06/12 06:39:32;;;;;;;;;;;;;;;-145.66;100.00;59599.19;10456415;28;20260;-68
2022/06/12 06:49:55;;;;;;;;;;;;;;;-145.66;100.00;59599.19;10464836;28;19921;-69
2022/06/12 06:54:58;;;;;;;;;;;;;;;-145.66;100.00;59599.19;10446932;28;20008;-69
2022/06/12 07:00:00;;;;;;;;;;;;;;;-145.66;100.00;59599.19;10465404;28;19921;-69
2022/06/12 07:05:02;;;;;;;;;;;;;;;-145.66;100.00;59599.19;10484752;28;19920;-68
2022/06/12 07:10:05;;;;;;;;;;;;;;;-145.66;100.00;59599.19;10485931;28;19921;-68
2022/06/12 07:15:08;;;;;;;;;;;;;;;-145.66;100.00;59599.19;10463965;28;19943;-68
2022/06/12 07:20:11;;;;;;;;;;;;;;;-145.66;100.00;59599.19;10463867;28;19921;-69
2022/06/12 07:25:14;;;;;;;;;;;;;;;-145.66;100.00;59599.19;10470119;28;19971;-69
2022/06/12 07:30:18;;;;;;;;;;;;;;;-145.66;100.00;59599.19;10504141;28;19928;-69
2022/06/12 07:35:21;;;;;;;;;;;;;;;-145.66;100.00;59599.19;10475146;28;19925;-69
2022/06/12 07:40:25;;;;;;;;;;;;;;;-145.66;100.00;59599.19;10462883;28;19926;-69
2022/06/12 07:45:28;;;;;;;;;;;;;;;-145.66;100.00;59599.19;10491731;22;19920;-63
2022/06/12 07:50:30;;;;;;;;;;;;;;;-145.66;100.00;59599.19;10503800;28;19921;-64
2022/06/12 07:55:32;;;;;;;;;;;;;;;-145.66;100.00;59599.19;10485532;28;19931;-64
2022/06/12 08:00:35;;;;;;;;;;;;;;;-145.66;100.00;59599.19;10503059;28;19920;-64
2022/06/12 08:05:38;;;;;;;;;;;;;;;-145.66;100.00;59599.19;10503411;28;19927;-64
2022/06/12 08:10:40;;;;;;;;;;;;;;;-145.66;100.00;59599.19;10484891;28;19935;-64
2022/06/12 08:15:46;;;;;;;;;;;;;;;-145.66;100.00;59599.19;10503139;28;20139;-64
2022/06/12 08:20:51;;;;;;;;;;;;;;;-145.66;100.00;59599.19;10502346;28;20389;-64
2022/06/12 08:26:13;;;;;;;;;;;;;;;-145.66;100.00;59599.19;10484373;28;20363;-64
2022/06/12 08:31:23;;;;;;;;;;;;;;;-145.66;100.00;59599.19;10501865;28;19927;-64
2022/06/12 08:36:26;;;;;;;;;;;;;;;-145.66;100.00;59599.19;10501565;28;19920;-64
2022/06/12 08:41:38;;;;;;;;;;;;;;;-145.66;100.00;59599.19;10483545;28;20286;-64
2022/06/12 08:46:45;;;;;;;;;;;;;;;-145.66;100.00;59599.19;10484201;28;19920;-64
2022/06/12 08:51:50;;;;;;;;;;;;;;;-145.66;100.00;59599.19;10501651;28;19920;-64
2022/06/12 08:56:58;;;;;;;;;;;;;;;-145.66;100.00;59599.19;10483762;28;19924;-64
2022/06/12 09:02:02;;;;;;;;;;;;;;;-145.66;100.00;59599.19;10483328;28;19920;-64
2022/06/12 09:07:11;;;;;;;;;;;;;;;-145.66;100.00;59599.19;10500637;28;19920;-63
2022/06/12 09:12:18;;;;;;;;;;;;;;;-145.66;100.00;59599.19;10482418;28;19943;-62
2022/06/12 09:17:27;;;;;;;;;;;;;;;-145.66;100.00;59599.19;10499952;28;19921;-63
2022/06/12 09:22:34;;;;;;;;;;;;;;;-145.66;100.00;59599.19;10482720;28;19939;-63
2022/06/12 09:27:39;;;;;;;;;;;;;;;-145.66;100.00;59599.19;10482550;28;19920;-63
2022/06/12 09:32:47;;;;;;;;;;;;;;;-145.66;100.00;59599.19;10481927;28;20291;-63
2022/06/12 09:38:19;;;;;;;;;;;;;;;-145.66;100.00;59599.19;10482068;28;19920;-63
2022/06/12 09:43:30;;;;;;;;;;;;;;;-145.66;100.00;59599.19;10498860;28;20359;-63
2022/06/12 09:48:51;;;;;;;;;;;;;;;-145.66;100.00;59599.19;10481818;28;19973;-63
2022/06/12 09:54:20;;;;;;;;;;;;;;;-145.66;100.00;59599.19;10499367;28;19927;-63
2022/06/12 09:59:35;;;;;;;;;;;;;;;-145.66;100.00;59599.19;10460670;28;19924;-63
2022/06/12 10:04:46;;;;;;;;;;;;;;;-145.66;100.00;59599.19;10481302;28;19921;-63
2022/06/12 10:09:49;;;;;;;;;;;;;;;-145.66;100.00;59599.19;10480516;28;20313;-63
2022/06/12 10:14:53;;;;;;;;;;;;;;;-145.66;100.00;59599.19;10480504;28;19924;-63
2022/06/12 10:20:00;;;;;;;;;;;;;;;-145.66;100.00;59599.19;10480329;28;19920;-63
2022/06/12 10:25:04;;;;;;;;;;;;;;;-145.66;100.00;59599.19;10480131;28;20332;-63
2022/06/12 10:30:06;;;;;;;;;;;;;;;-145.66;100.00;59599.19;10498455;28;19921;-63
2022/06/12 10:35:16;;;;;;;;;;;;;;;-145.66;100.00;59599.19;10498469;28;19920;-63
2022/06/12 10:40:23;;;;;;;;;;;;;;;-145.66;100.00;59599.19;10497682;28;20290;-62
2022/06/12 10:45:26;;;;;;;;;;;;;;;-145.66;100.00;59599.19;10463623;28;20374;-62
2022/06/12 10:50:31;;;;;;;;;;;;;;;-145.66;100.00;59599.19;10479610;28;20335;-63
2022/06/12 10:55:48;;;;;;;;;;;;;;;-145.66;100.00;59599.19;10479617;28;20282;-63
2022/06/12 11:00:51;;;;;;;;;;;;;;;-145.66;100.00;59599.19;10497850;28;19928;-64
2022/06/12 11:05:53;;;;;;;;;;;;;;;-145.66;100.00;59599.19;10480065;28;19924;-63
2022/06/12 11:11:14;;;;;;;;;;;;;;;-145.66;100.00;59599.19;10497073;28;20027;-63
2022/06/12 11:16:22;;;;;;;;;;;;;;;-145.66;100.00;59599.19;10497673;28;19927;-64
2022/06/12 11:21:35;;;;;;;;;;;;;;;-145.66;100.00;59599.19;10479092;28;19924;-63
2022/06/12 11:26:41;;;;;;;;;;;;;;;-145.66;100.00;59599.19;10480952;28;20385;-64
2022/06/12 11:31:52;;;;;;;;;;;;;;;-145.66;100.00;59599.19;10486530;28;20298;-62
2022/06/12 11:37:03;;;;;;;;;;;;;;;-145.66;100.00;59599.19;10504666;28;19921;-62
2022/06/12 11:42:25;;;;;;;;;;;;;;;-145.66;100.00;59599.19;10486398;28;20333;-63
2022/06/12 11:47:51;;;;;;;;;;;;;;;-145.66;100.00;59599.19;10504351;28;19920;-63
2022/06/12 11:52:53;;;;;;;;;;;;;;;-145.66;100.00;59599.19;10490624;28;20387;-63
2022/06/12 11:58:13;;;;;;;;;;;;;;;-145.66;100.00;59599.19;10503864;28;19920;-63
2022/06/12 12:03:30;;;;;;;;;;;;;;;-145.66;100.00;59599.19;10503658;28;19935;-63
2022/06/12 12:08:50;;;;;;;;;;;;;;;-145.66;100.00;59599.19;10485024;28;19928;-63
2022/06/12 12:13:54;;;;;;;;;;;;;;;-145.66;100.00;59599.19;10503585;28;19924;-64
2022/06/12 12:18:58;;;;;;;;;;;;;;;-145.66;100.00;59599.19;10485241;28;19927;-63
2022/06/12 12:24:01;;;;;;;;;;;;;;;-145.66;100.00;59599.19;10502723;28;19920;-63
2022/06/12 12:29:09;;;;;;;;;;;;;;;-145.66;100.00;59599.19;10502667;28;19931;-63
2022/06/12 12:34:11;;;;;;;;;;;;;;;-145.66;100.00;59599.19;10484719;28;19927;-64
2022/06/12 12:44:54;;;;;;;;;;;;;;;-145.66;100.00;59599.19;10501439;28;19924;-64
2022/06/12 12:50:04;;;;;;;;;;;;;;;-145.66;100.00;59599.19;10483950;28;19926;-63
2022/06/12 12:55:06;;;;;;;;;;;;;;;-145.66;100.00;59599.19;10502059;28;19974;-63
2022/06/12 13:00:17;;;;;;;;;;;;;;;-145.66;100.00;59599.19;10482856;28;19927;-63
2022/06/12 13:05:21;;;;;;;;;;;;;;;-145.66;100.00;59599.19;10501090;28;19920;-63
2022/06/12 13:10:42;;;;;;;;;;;;;;;-145.66;100.00;59599.19;10501239;28;19924;-64
2022/06/12 13:16:03;;;;;;;;;;;;;;;-145.66;100.00;59599.19;10500017;28;20011;-63
2022/06/12 13:21:08;;;;;;;;;;;;;;;-145.66;100.00;59599.19;10499846;28;20354;-64
2022/06/12 13:26:11;;;;;;;;;;;;;;;-145.66;100.00;59599.19;10499555;28;19921;-64
2022/06/12 13:31:17;;;;;;;;;;;;;;;-145.66;100.00;59599.19;10481653;28;20363;-64
2022/06/12 13:36:21;;;;;;;;;;;;;;;-145.66;100.00;59599.19;10499947;28;19959;-64
2022/06/12 13:41:25;;;;;;;;;;;;;;;-145.66;100.00;59599.19;10481847;28;19932;-64
2022/06/12 13:46:32;;;;;;;;;;;;;;;-145.66;100.00;59599.19;10481761;28;19927;-63
2022/06/12 13:51:36;;;;;;;;;;;;;;;-145.66;100.00;59599.19;10499104;28;20402;-63
2022/06/12 13:56:49;;;;;;;;;;;;;;;-145.66;100.00;59599.19;10481839;28;19920;-63
2022/06/12 14:01:51;;;;;;;;;;;;;;;-145.66;100.00;59599.19;10481418;28;19963;-63
2022/06/12 14:06:55;;;;;;;;;;;;;;;-145.66;100.00;59599.19;10498968;28;19920;-64
2022/06/12 14:11:57;;;;;;;;;;;;;;;-145.66;100.00;59599.19;10481234;28;19920;-63
2022/06/12 14:17:00;;;;;;;;;;;;;;;-145.66;100.00;59599.19;10481172;28;19920;-63
2022/06/12 14:22:12;;;;;;;;;;;;;;;-145.66;100.00;59599.19;10498390;28;19920;-64
2022/06/12 14:27:21;;;;;;;;;;;;;;;-145.66;100.00;59599.19;10498478;28;19959;-64
2022/06/12 14:32:25;;;;;;;;;;;;;;;-145.66;100.00;59599.19;10480724;28;19924;-64
2022/06/12 14:37:31;;;;;;;;;;;;;;;-145.66;100.00;59599.19;10480752;28;19926;-64
2022/06/12 14:42:33;;;;;;;;;;;;;;;-145.66;100.00;59599.19;10497552;28;19926;-63
2022/06/12 14:47:36;;;;;;;;;;;;;;;-145.66;100.00;59599.19;10498179;28;19920;-64
2022/06/12 14:52:38;;;;;;;;;;;;;;;-145.66;100.00;59599.19;10498061;28;19921;-64
2022/06/12 14:57:40;;;;;;;;;;;;;;;-145.66;100.00;59599.19;10479554;28;19920;-64
2022/06/12 15:02:42;;;;;;;;;;;;;;;-145.66;100.00;59599.19;10483279;28;20364;-64
2022/06/12 15:07:44;;;;;;;;;;;;;;;-145.66;100.00;59599.19;10505212;28;19924;-64
2022/06/12 15:12:47;;;;;;;;;;;;;;;-145.66;100.00;59599.19;10504998;28;19927;-64
2022/06/12 15:17:52;;;;;;;;;;;;;;;-145.66;100.00;59599.19;10497441;28;19920;-64
2022/06/12 15:22:54;;;;;;;;;;;;;;;-145.66;100.00;59599.19;10489646;28;19931;-63
2022/06/12 15:33:17;;;;;;;;;;;;;;;-145.66;100.00;59599.19;10463438;28;19928;-64
2022/06/12 15:38:19;;;;;;;;;;;;;;;-145.66;100.00;59599.19;10474132;28;19926;-64
2022/06/12 15:43:22;;;;;;;;;;;;;;;-145.66;100.00;59599.19;10504105;28;19928;-64
2022/06/12 15:48:24;;;;;;;;;;;;;;;-145.66;100.00;59599.19;10499654;28;19993;-64
2022/06/12 15:53:29;;;;;;;;;;;;;;;-145.66;100.00;59599.19;10480205;28;20341;-64
2022/06/12 15:58:31;;;;;;;;;;;;;;;-145.66;100.00;59599.19;10489037;28;20338;-64
2022/06/12 16:03:33;;;;;;;;;;;;;;;-145.66;100.00;59599.19;10493046;28;19921;-64
2022/06/12 16:08:36;;;;;;;;;;;;;;;-145.66;100.00;59599.19;10475008;28;19920;-65
2022/06/12 16:13:38;;;;;;;;;;;;;;;-145.66;100.00;59599.19;10502499;28;20387;-65
2022/06/12 16:18:40;;;;;;;;;;;;;;;-145.66;100.00;59599.19;10472360;28;19927;-64
2022/06/12 16:23:42;;;;;;;;;;;;;;;-145.66;100.00;59599.19;10463123;28;20375;-64
2022/06/12 16:28:44;;;;;;;;;;;;;;;-145.66;100.00;59599.19;10461483;28;19931;-64
2022/06/12 16:33:47;;;;;;;;;;;;;;;-145.66;100.00;59599.19;10461086;28;20006;-64
2022/06/12 16:38:49;;;;;;;;;;;;;;;-145.66;100.00;59599.19;10459678;28;19920;-64
2022/06/12 16:43:51;;;;;;;;;;;;;;;-145.66;100.00;59599.19;10499297;28;19920;-64
2022/06/12 16:48:54;;;;;;;;;;;;;;;-145.66;100.00;59599.19;10482472;28;19927;-64
2022/06/12 16:53:56;;;;;;;;;;;;;;;-145.66;100.00;59599.19;10501492;28;19927;-64
2022/06/12 16:58:58;;;;;;;;;;;;;;;-145.66;100.00;59599.19;10500727;28;19927;-64
2022/06/12 17:04:00;;;;;;;;;;;;;;;-145.66;100.00;59599.19;10499980;28;19920;-64
2022/06/12 17:09:04;;;;;;;;;;;;;;;-145.66;100.00;59599.19;10460903;28;19942;-64
2022/06/12 17:14:06;;;;;;;;;;;;;;;-145.66;100.00;59599.19;10459450;28;19921;-64
2022/06/12 17:24:29;;;;;;;;;;;;;;;-145.66;100.00;59599.19;10499322;28;19943;-64
2022/06/12 17:29:31;;;;;;;;;;;;;;;-145.66;100.00;59599.19;10482490;28;19921;-64
2022/06/12 17:34:34;;;;;;;;;;;;;;;-145.66;100.00;59599.19;10497693;28;19920;-64
2022/06/12 17:39:36;;;;;;;;;;;;;;;-145.66;100.00;59599.19;10484861;28;19921;-64
2022/06/12 17:44:38;;;;;;;;;;;;;;;-145.66;100.00;59599.19;10470086;28;20007;-64
2022/06/12 17:49:41;;;;;;;;;;;;;;;-145.66;100.00;59599.19;10499003;28;19943;-64
2022/06/12 17:54:43;;;;;;;;;;;;;;;-145.66;100.00;59599.19;10481067;28;20261;-64
2022/06/12 17:59:45;;;;;;;;;;;;;;;-145.66;100.00;59599.19;10495016;28;19927;-64
2022/06/12 18:04:48;;;;;;;;;;;;;;;-145.66;100.00;59599.19;10466044;28;19920;-64
2022/06/12 18:09:50;;;;;;;;;;;;;;;-145.66;100.00;59599.19;10457559;28;19927;-64
2022/06/12 18:20:13;;;;;;;;;;;;;;;-145.66;100.00;59599.19;10452019;28;19925;-63
2022/06/12 18:25:16;;;;;;;;;;;;;;;-145.66;100.00;59599.19;10466587;28;20257;-63
2022/06/12 18:30:18;;;;;;;;;;;;;;;-145.66;100.00;59599.19;10473544;28;19931;-64
2022/06/12 18:35:20;;;;;;;;;;;;;;;-145.66;100.00;59599.19;10485788;28;19920;-64
2022/06/12 18:40:23;;;;;;;;;;;;;;;-145.66;100.00;59599.19;10498191;28;19925;-64
2022/06/12 18:45:25;;;;;;;;;;;;;;;-145.66;100.00;59599.19;10499009;28;20366;-64
2022/06/12 18:50:27;;;;;;;;;;;;;;;-145.66;100.00;59599.19;10498393;28;19933;-64
2022/06/12 18:55:30;;;;;;;;;;;;;;;-145.66;100.00;59599.19;10492921;28;20395;-64
2022/06/12 19:00:33;;;;;;;;;;;;;;;-145.66;100.00;59599.19;10435661;28;19931;-64
2022/06/12 19:05:37;;;;;;;;;;;;;;;-145.66;100.00;59599.19;10439338;28;20299;-64
2022/06/12 19:10:39;;;;;;;;;;;;;;;-145.66;100.00;59599.19;10457171;28;19924;-64
2022/06/12 19:15:41;;;;;;;;;;;;;;;-145.66;100.00;59599.19;10460265;28;19924;-64
2022/06/12 19:20:43;;;;;;;;;;;;;;;-145.66;100.00;59599.19;10457918;28;20381;-64
2022/06/12 19:25:46;;;;;;;;;;;;;;;-145.66;100.00;59599.19;10463132;28;19924;-64
2022/06/12 19:30:49;;;;;;;;;;;;;;;-145.66;100.00;59599.19;10464095;28;19921;-64
2022/06/12 19:35:51;;;;;;;;;;;;;;;-145.66;100.00;59599.19;10463445;28;19921;-64
2022/06/12 19:40:53;;;;;;;;;;;;;;;-145.66;100.00;59599.19;10466053;28;19926;-64
2022/06/12 19:45:56;;;;;;;;;;;;;;;-145.66;100.00;59599.19;10503688;28;20389;-63
2022/06/12 19:50:58;;;;;;;;;;;;;;;-145.66;100.00;59599.19;10501292;28;20305;-64
2022/06/12 19:56:00;;;;;;;;;;;;;;;-145.66;100.00;59599.19;10503829;28;19927;-64
2022/06/12 20:01:04;;;;;;;;;;;;;;;-145.66;100.00;59599.19;10509169;22;19931;-64
2022/06/12 20:11:27;;;;;;;;;;;;;;;-145.66;100.00;59599.19;10503126;28;19924;-64
2022/06/12 20:16:29;;;;;;;;;;;;;;;-145.66;100.00;59599.19;10503424;28;19928;-63
2022/06/12 20:21:32;;;;;;;;;;;;;;;-145.66;100.00;59599.19;10502167;28;19934;-64
2022/06/12 20:26:34;;;;;;;;;;;;;;;-145.66;100.00;59599.19;10493422;28;19920;-64
2022/06/12 20:31:36;;;;;;;;;;;;;;;-145.66;100.00;59599.19;10502427;28;19924;-64
2022/06/12 20:36:39;;;;;;;;;;;;;;;-145.66;100.00;59599.19;10501625;28;19990;-64
2022/06/12 20:41:41;;;;;;;;;;;;;;;-145.66;100.00;59599.19;10500180;28;19921;-64
2022/06/12 20:46:47;;;;;;;;;;;;;;;-145.66;100.00;59599.19;10501267;28;19920;-63
2022/06/12 20:51:50;;;;;;;;;;;;;;;-145.66;100.00;59599.19;10501637;28;19927;-64
2022/06/12 20:56:53;;;;;;;;;;;;;;;-145.66;100.00;59599.19;10500901;28;19966;-63
2022/06/12 21:01:55;;;;;;;;;;;;;;;-145.66;100.00;59599.19;10500387;28;19921;-64
2022/06/12 21:06:57;;;;;;;;;;;;;;;-145.66;100.00;59599.19;10501044;28;19930;-64
2022/06/12 21:12:00;;;;;;;;;;;;;;;-145.66;100.00;59599.19;10500824;28;19928;-63
2022/06/12 21:17:02;;;;;;;;;;;;;;;-145.66;100.00;59599.19;10500872;28;19920;-64
2022/06/12 21:22:04;;;;;;;;;;;;;;;-145.66;100.00;59599.19;10500448;28;19928;-63
2022/06/12 21:27:09;;;;;;;;;;;;;;;-145.66;100.00;59599.19;10499784;28;20367;-63
2022/06/12 21:32:11;;;;;;;;;;;;;;;-145.66;100.00;59599.19;10499989;28;19920;-63
2022/06/12 21:37:14;;;;;;;;;;;;;;;-145.66;100.00;59599.19;10499307;28;20359;-64
2022/06/12 21:42:18;;;;;;;;;;;;;;;-145.66;100.00;59599.19;10499001;28;20374;-63
2022/06/12 21:47:21;;;;;;;;;;;;;;;-145.66;100.00;59599.19;10499625;28;19921;-63
2022/06/12 21:57:44;;;;;;;;;;;;;;;-145.66;100.00;59599.19;10498842;28;19920;-63
2022/06/12 22:02:47;;;;;;;;;;;;;;;-145.66;100.00;59599.19;10498444;28;19920;-63
2022/06/12 22:07:49;;;;;;;;;;;;;;;-145.66;100.00;59599.19;10498361;28;19920;-63
2022/06/12 22:12:51;;;;;;;;;;;;;;;-145.66;100.00;59599.19;10498778;28;19921;-63
2022/06/12 22:17:53;;;;;;;;;;;;;;;-145.66;100.00;59599.19;10496889;28;19921;-63
2022/06/12 22:22:56;;;;;;;;;;;;;;;-145.66;100.00;59599.19;10497807;28;20398;-63
2022/06/12 22:27:58;;;;;;;;;;;;;;;-145.66;100.00;59599.19;10496417;28;19927;-63
2022/06/12 22:33:00;;;;;;;;;;;;;;;-145.66;100.00;59599.19;10480674;28;20350;-63
2022/06/12 22:38:02;;;;;;;;;;;;;;;-145.66;100.00;59599.19;10498187;28;19927;-63
2022/06/12 22:43:06;;;;;;;;;;;;;;;-145.66;100.00;59599.19;10498097;28;19920;-64
2022/06/12 22:48:08;;;;;;;;;;;;;;;-145.66;100.00;59599.19;10497973;28;19928;-64
2022/06/12 22:53:11;;;;;;;;;;;;;;;-145.66;100.00;59599.19;10497924;28;19928;-64
2022/06/12 22:58:13;;;;;;;;;;;;;;;-145.66;100.00;59599.19;10479678;28;19921;-64
2022/06/12 23:03:16;;;;;;;;;;;;;;;-145.66;100.00;59599.19;10496985;28;19928;-64
2022/06/12 23:08:18;;;;;;;;;;;;;;;-145.66;100.00;59599.19;10495687;28;20290;-64
2022/06/12 23:13:20;;;;;;;;;;;;;;;-145.66;100.00;59599.19;10497557;28;19926;-64
2022/06/12 23:18:23;;;;;;;;;;;;;;;-145.66;100.00;59599.19;10479525;28;19921;-64
2022/06/12 23:23:28;;;;;;;;;;;;;;;-145.66;100.00;59599.19;10499712;28;20307;-64
2022/06/12 23:28:32;;;;;;;;;;;;;;;-145.66;100.00;59599.19;10504053;28;20290;-64
2022/06/12 23:33:37;;;;;;;;;;;;;;;-145.66;100.00;59599.19;10494290;28;19927;-64
2022/06/12 23:38:40;;;;;;;;;;;;;;;-145.66;100.00;59599.19;10464384;28;19921;-64
2022/06/12 23:43:43;;;;;;;;;;;;;;;-145.66;100.00;59599.19;10451622;28;20397;-64
2022/06/12 23:48:46;;;;;;;;;;;;;;;-145.66;100.00;59599.19;10489183;28;19960;-64
2022/06/12 23:53:48;;;;;;;;;;;;;;;-145.66;100.00;59599.19;10461496;28;19921;-64
2022/06/12 23:58:50;;;;;;;;;;;;;;;-145.66;100.00;59599.19;10501496;28;19927;-64
